Honey Creek, Missouri
Current Conditions -  °F | °C
As of 5:53 PM on Sunday 21 Dec 2014 (Local Time) from KJEF Reporting Station
Overcast Overcast  
Wind Chill: 37°   Ceiling: 5000
Heat Index: 43°   Visibility: 10mi
Dew Point: 36°   Wind: 12mph
Humidity: 76%   Direction: 140°SE
Pressure: 29.96"   Gusts: NA
Location:  38.5003°N, 92.1516°W
Report Text: KJEF 212353Z 14010KT 10SM FEW021 OVC050 06/02 A2996 RMK AO2 SLP137 T00610022 10078 20061 51001
Loading
Personal Weather Stations






























Interactive Weather Map New forecast layout! Learn more

10-Day Weather Forecast

Advertisements
Track Severe Weather on mobile